^^
Station Historical Data
Daily Summary for December 8, 2018 Units:  English    Metric   Both
« Previous Day
Next Day »
Daily Weekly Monthly Yearly Custom
  High: Low: Average:
Temperature: 29.8 °F 12.4 °F 18.5 °F
Dew Point: 20.9 °F 10 °F 14.5 °F
Humidity: 91% 68% 84%
Wind Speed: 14mph 0mph 5.5mph
Wind Gust: 18mph - -
Wind- - SSW
Pressure: 30.51 in 30.14 in -
Precipitation: 0 in    
Historical Graphs
 
 
Tabular Data for December 8, 2018
Time Temperature Dew Point Pressure Wind Wind Speed Wind Gust Humidity Rainfall Rate (Hourly) solar Conditions
00:04 14.6 °F 11.4 °F 30.51 in SE 5 mph 8 mph 87% 0 in 0.00 W/m2
00:09 14.4 °F 11.2 °F 30.51 in SE 7 mph 10 mph 87% 0 in 0.00 W/m2
00:14 14.3 °F 11.1 °F 30.51 in SE 8 mph 10 mph 87% 0 in 0.00 W/m2
00:19 14.3 °F 11.4 °F 30.51 in SE 6 mph 10 mph 88% 0 in 0.00 W/m2
00:24 14.4 °F 11.5 °F 30.51 in SE 8 mph 9 mph 88% 0 in 0.00 W/m2
00:29 14 °F 11.1 °F 30.51 in SE 8 mph 9 mph 88% 0 in 0.00 W/m2
00:34 13.8 °F 10.9 °F 30.51 in SE 6 mph 9 mph 88% 0 in 0.00 W/m2
00:39 13.6 °F 10.7 °F 30.51 in SE 6 mph 8 mph 88% 0 in 0.00 W/m2
00:44 13.5 °F 10.6 °F 30.51 in SE 6 mph 9 mph 88% 0 in 0.00 W/m2
00:49 13.5 °F 10.9 °F 30.51 in SE 7 mph 9 mph 89% 0 in 0.00 W/m2
00:54 13.4 °F 10.8 °F 30.51 in SE 7 mph 9 mph 89% 0 in 0.00 W/m2
00:59 13.7 °F 11.1 °F 30.50 in SE 6 mph 10 mph 89% 0 in 0.00 W/m2
01:04 14 °F 11.4 °F 30.50 in SE 6 mph 11 mph 89% 0 in 0.00 W/m2
01:09 14.1 °F 11.5 °F 30.50 in SE 6 mph 11 mph 89% 0 in 0.00 W/m2
01:14 14.1 °F 11.5 °F 30.50 in SE 6 mph 9 mph 89% 0 in 0.00 W/m2
01:19 13.8 °F 10.9 °F 30.50 in SE 6 mph 9 mph 88% 0 in 0.00 W/m2
01:24 13.5 °F 10.6 °F 30.50 in SE 7 mph 8 mph 88% 0 in 0.00 W/m2
01:29 13.3 °F 10.7 °F 30.50 in SE 5 mph 8 mph 89% 0 in 0.00 W/m2
01:34 13.1 °F 10.5 °F 30.50 in SE 7 mph 8 mph 89% 0 in 0.00 W/m2
01:39 12.9 °F 10.3 °F 30.50 in SE 5 mph 8 mph 89% 0 in 0.00 W/m2
01:44 13.2 °F 10.6 °F 30.50 in SE 4 mph 9 mph 89% 0 in 0.00 W/m2
01:49 13.3 °F 10.7 °F 30.49 in ESE 8 mph 9 mph 89% 0 in 0.00 W/m2
01:54 13.3 °F 10.7 °F 30.49 in SE 7 mph 10 mph 89% 0 in 0.00 W/m2
01:59 13.3 °F 10.7 °F 30.49 in ESE 9 mph 10 mph 89% 0 in 0.00 W/m2
02:04 13.1 °F 10.5 °F 30.49 in SE 7 mph 10 mph 89% 0 in 0.00 W/m2
02:09 12.9 °F 10.3 °F 30.49 in SE 7 mph 10 mph 89% 0 in 0.00 W/m2
02:14 12.7 °F 10.1 °F 30.49 in SE 8 mph 9 mph 89% 0 in 0.00 W/m2
02:19 12.8 °F 10.2 °F 30.49 in SE 8 mph 10 mph 89% 0 in 0.00 W/m2
02:24 12.9 °F 10.3 °F 30.48 in SE 8 mph 10 mph 89% 0 in 0.00 W/m2
02:29 13.1 °F 10.5 °F 30.49 in SE 6 mph 10 mph 89% 0 in 0.00 W/m2
02:34 13.1 °F 10.5 °F 30.49 in SE 7 mph 10 mph 89% 0 in 0.00 W/m2
02:39 13.2 °F 10.6 °F 30.48 in SE 7 mph 9 mph 89% 0 in 0.00 W/m2
02:44 13.1 °F 10.5 °F 30.48 in ESE 7 mph 10 mph 89% 0 in 0.00 W/m2
02:49 13.1 °F 10.7 °F 30.48 in ESE 4 mph 10 mph 90% 0 in 0.00 W/m2
02:54 13 °F 10.4 °F 30.48 in SE 6 mph 9 mph 89% 0 in 0.00 W/m2
02:59 13.3 °F 10.9 °F 30.47 in SE 5 mph 10 mph 90% 0 in 0.00 W/m2
03:04 13.5 °F 11.1 °F 30.47 in SE 6 mph 10 mph 90% 0 in 0.00 W/m2
03:09 13.5 °F 11.1 °F 30.47 in ESE 8 mph 10 mph 90% 0 in 0.00 W/m2
03:14 13.3 °F 10.7 °F 30.47 in ESE 8 mph 10 mph 89% 0 in 0.00 W/m2
03:19 13.1 °F 10.5 °F 30.46 in ESE 7 mph 9 mph 89% 0 in 0.00 W/m2
03:24 12.9 °F 10.3 °F 30.46 in East 9 mph 10 mph 89% 0 in 0.00 W/m2
03:29 12.8 °F 10.2 °F 30.46 in ESE 5 mph 10 mph 89% 0 in 0.00 W/m2
03:34 12.7 °F 10.1 °F 30.46 in ESE 8 mph 11 mph 89% 0 in 0.00 W/m2
03:39 12.7 °F 10.1 °F 30.45 in ESE 10 mph 12 mph 89% 0 in 0.00 W/m2
03:44 12.8 °F 10.4 °F 30.45 in ESE 10 mph 12 mph 90% 0 in 0.00 W/m2
03:49 12.8 °F 10.4 °F 30.45 in ESE 10 mph 12 mph 90% 0 in 0.00 W/m2
03:54 12.9 °F 10.5 °F 30.45 in ESE 5 mph 11 mph 90% 0 in 0.00 W/m2
03:59 12.9 °F 10.5 °F 30.44 in ESE 8 mph 13 mph 90% 0 in 0.00 W/m2
04:04 12.8 °F 10.4 °F 30.44 in ESE 10 mph 14 mph 90% 0 in 0.00 W/m2
04:09 12.7 °F 10.3 °F 30.44 in ESE 9 mph 14 mph 90% 0 in 0.00 W/m2
04:14 12.6 °F 10.2 °F 30.43 in ESE 11 mph 14 mph 90% 0 in 0.00 W/m2
04:19 12.8 °F 10.4 °F 30.43 in ESE 12 mph 14 mph 90% 0 in 0.00 W/m2
04:24 12.7 °F 10.3 °F 30.43 in ESE 10 mph 14 mph 90% 0 in 0.00 W/m2
04:29 12.7 °F 10.3 °F 30.43 in ESE 12 mph 14 mph 90% 0 in 0.00 W/m2
04:34 12.7 °F 10.3 °F 30.43 in ESE 10 mph 13 mph 90% 0 in 0.00 W/m2
04:39 12.6 °F 10.2 °F 30.43 in ESE 14 mph 14 mph 90% 0 in 0.00 W/m2
04:44 12.8 °F 10.4 °F 30.42 in ESE 10 mph 18 mph 90% 0 in 0.00 W/m2
04:49 12.7 °F 10.3 °F 30.42 in ESE 9 mph 18 mph 90% 0 in 0.00 W/m2
04:54 12.6 °F 10.2 °F 30.42 in ESE 11 mph 14 mph 90% 0 in 0.00 W/m2
04:59 12.7 °F 10.3 °F 30.42 in ESE 13 mph 14 mph 90% 0 in 0.00 W/m2
05:04 12.8 °F 10.4 °F 30.42 in ESE 9 mph 14 mph 90% 0 in 0.00 W/m2
05:09 12.8 °F 10.4 °F 30.42 in East 13 mph 14 mph 90% 0 in 0.00 W/m2
05:14 12.7 °F 10.3 °F 30.41 in ESE 10 mph 14 mph 90% 0 in 0.00 W/m2
05:19 12.6 °F 10.2 °F 30.41 in ESE 11 mph 14 mph 90% 0 in 0.00 W/m2
05:24 12.6 °F 10.2 °F 30.41 in East 9 mph 13 mph 90% 0 in 0.00 W/m2
05:29 12.5 °F 10.1 °F 30.41 in East 8 mph 13 mph 90% 0 in 0.00 W/m2
05:34 12.4 °F 10 °F 30.41 in ESE 10 mph 13 mph 90% 0 in 0.00 W/m2
05:39 12.5 °F 10.1 °F 30.40 in ESE 12 mph 13 mph 90% 0 in 0.00 W/m2
05:44 12.6 °F 10.2 °F 30.40 in ESE 9 mph 13 mph 90% 0 in 0.00 W/m2
05:49 13 °F 10.6 °F 30.40 in ESE 8 mph 13 mph 90% 0 in 0.00 W/m2
05:54 13.1 °F 10.7 °F 30.40 in East 10 mph 12 mph 90% 0 in 0.00 W/m2
05:59 13.3 °F 10.9 °F 30.40 in ESE 9 mph 13 mph 90% 0 in 0.00 W/m2
06:04 13.6 °F 11.2 °F 30.39 in East 9 mph 13 mph 90% 0 in 0.00 W/m2
06:09 13.6 °F 11.2 °F 30.39 in SE 10 mph 13 mph 90% 0 in 0.00 W/m2
06:14 14.2 °F 12.1 °F 30.40 in SE 8 mph 13 mph 91% 0 in 0.00 W/m2
06:19 15 °F 12.8 °F 30.40 in SE 8 mph 14 mph 91% 0 in 0.00 W/m2
06:24 15.2 °F 12.8 °F 30.40 in SE 6 mph 14 mph 90% 0 in 0.00 W/m2
06:29 15.1 °F 12.7 °F 30.40 in SE 8 mph 11 mph 90% 0 in 0.00 W/m2
06:34 15.5 °F 13.1 °F 30.40 in SE 7 mph 13 mph 90% 0 in 0.00 W/m2
06:39 15.8 °F 13.1 °F 30.39 in ESE 8 mph 13 mph 89% 0 in 0.00 W/m2
06:44 15.8 °F 13.1 °F 30.39 in ESE 10 mph 16 mph 89% 0 in 0.00 W/m2
06:49 15.8 °F 13.1 °F 30.39 in ESE 9 mph 16 mph 89% 0 in 0.00 W/m2
06:54 15.9 °F 13.2 °F 30.39 in SE 10 mph 14 mph 89% 0 in 0.00 W/m2
06:59 15.9 °F 13.2 °F 30.39 in SE 8 mph 14 mph 89% 0 in 0.00 W/m2
07:04 15.9 °F 13.2 °F 30.39 in SE 7 mph 14 mph 89% 0 in 0.00 W/m2
07:09 15.9 °F 13 °F 30.39 in SE 7 mph 12 mph 88% 0 in 0.00 W/m2
07:14 15.9 °F 13 °F 30.38 in SSE 10 mph 12 mph 88% 0 in 0.00 W/m2
07:19 15.8 °F 12.9 °F 30.38 in SE 7 mph 12 mph 88% 0 in 0.00 W/m2
07:24 15.8 °F 12.9 °F 30.38 in SE 7 mph 12 mph 88% 0 in 0.00 W/m2
07:29 15.8 °F 12.9 °F 30.38 in SE 6 mph 11 mph 88% 0 in 0.00 W/m2
07:34 15.6 °F 12.7 °F 30.38 in SSE 6 mph 10 mph 88% 0 in 0.00 W/m2
07:39 15.5 °F 12.6 °F 30.38 in SE 9 mph 10 mph 88% 0 in 0.00 W/m2
07:44 15.5 °F 12.6 °F 30.38 in SE 8 mph 10 mph 88% 0 in 0.00 W/m2
07:49 15.5 °F 12.6 °F 30.38 in SE 6 mph 10 mph 88% 0 in 0.00 W/m2
07:54 15.6 °F 12.7 °F 30.38 in SE 6 mph 10 mph 88% 0 in 0.00 W/m2
07:59 15.5 °F 12.6 °F 30.37 in SE 6 mph 10 mph 88% 0 in 0.00 W/m2
08:04 15.5 °F 12.6 °F 30.37 in SE 8 mph 10 mph 88% 0 in 0.00 W/m2
08:09 15.5 °F 12.6 °F 30.37 in SE 7 mph 10 mph 88% 0 in 5.00 W/m2
08:14 15.5 °F 12.6 °F 30.37 in SE 5 mph 10 mph 88% 0 in 5.00 W/m2
08:19 15.4 °F 12.5 °F 30.37 in SE 5 mph 9 mph 88% 0 in 5.00 W/m2
08:24 15.3 °F 12.1 °F 30.38 in SSE 4 mph 6 mph 87% 0 in 9.00 W/m2
08:29 15.2 °F 12 °F 30.38 in SSE 4 mph 6 mph 87% 0 in 11.00 W/m2
08:34 15.1 °F 12.2 °F 30.38 in SSE 6 mph 6 mph 88% 0 in 14.00 W/m2
08:39 15.2 °F 12.3 °F 30.38 in SE 6 mph 8 mph 88% 0 in 18.00 W/m2
08:44 15.3 °F 12.4 °F 30.37 in SE 7 mph 8 mph 88% 0 in 21.00 W/m2
08:49 15.4 °F 12.5 °F 30.37 in SE 8 mph 12 mph 88% 0 in 26.00 W/m2
08:54 15.5 °F 12.6 °F 30.37 in East 5 mph 12 mph 88% 0 in 32.00 W/m2
08:59 15.6 °F 12.7 °F 30.36 in ESE 8 mph 13 mph 88% 0 in 37.00 W/m2
09:04 15.6 °F 12.7 °F 30.36 in ESE 7 mph 13 mph 88% 0 in 44.00 W/m2
09:09 15.8 °F 12.9 °F 30.37 in SSE 8 mph 12 mph 88% 0 in 47.00 W/m2
09:14 15.9 °F 13 °F 30.37 in SE 6 mph 10 mph 88% 0 in 51.00 W/m2
09:19 16.1 °F 13.2 °F 30.37 in SE 7 mph 10 mph 88% 0 in 54.00 W/m2
09:24 16.3 °F 13.4 °F 30.37 in SE 4 mph 10 mph 88% 0 in 63.00 W/m2
09:29 16.4 °F 13.5 °F 30.38 in SE 4 mph 10 mph 88% 0 in 72.00 W/m2
09:34 16.7 °F 13.8 °F 30.38 in SE 5 mph 8 mph 88% 0 in 77.00 W/m2
09:39 16.9 °F 14 °F 30.37 in SE 5 mph 8 mph 88% 0 in 81.00 W/m2
09:44 17 °F 14.1 °F 30.37 in SE 6 mph 9 mph 88% 0 in 84.00 W/m2
09:49 17.1 °F 13.9 °F 30.37 in SE 6 mph 9 mph 87% 0 in 91.00 W/m2
09:54 17.3 °F 14.1 °F 30.37 in SSE 4 mph 10 mph 87% 0 in 100.00 W/m2
09:59 17.4 °F 14.5 °F 30.37 in ESE 9 mph 10 mph 88% 0 in 102.00 W/m2
10:04 17.7 °F 14.5 °F 30.37 in SSE 6 mph 10 mph 87% 0 in 107.00 W/m2
10:09 18 °F 14.8 °F 30.38 in SSE 5 mph 10 mph 87% 0 in 116.00 W/m2
10:14 18.3 °F 15.1 °F 30.38 in SE 8 mph 8 mph 87% 0 in 125.00 W/m2
10:19 18.6 °F 15.4 °F 30.38 in SSE 5 mph 8 mph 87% 0 in 132.00 W/m2
10:24 18.8 °F 15.6 °F 30.38 in SSE 9 mph 9 mph 87% 0 in 141.00 W/m2
10:29 19 °F 15.8 °F 30.37 in SE 5 mph 9 mph 87% 0 in 146.00 W/m2
10:34 19.3 °F 15.8 °F 30.37 in SE 7 mph 9 mph 86% 0 in 160.00 W/m2
10:39 19.5 °F 16 °F 30.37 in SSE 5 mph 9 mph 86% 0 in 183.00 W/m2
10:44 19.9 °F 16.4 °F 30.38 in SE 7 mph 9 mph 86% 0 in 174.00 W/m2
10:49 20 °F 16.2 °F 30.37 in SE 4 mph 8 mph 85% 0 in 141.00 W/m2
10:54 20 °F 16.2 °F 30.37 in SE 9 mph 9 mph 85% 0 in 141.00 W/m2
10:59 20 °F 16.2 °F 30.19 in South 7 mph 9 mph 85% 0 in 149.00 W/m2
11:04 20.1 °F 16.3 °F 30.19 in SSE 4 mph 9 mph 85% 0 in 144.00 W/m2
11:09 20.3 °F 16.5 °F 30.19 in South 7 mph 8 mph 85% 0 in 148.00 W/m2
11:14 20.4 °F 16.3 °F 30.19 in SSE 4 mph 8 mph 84% 0 in 193.00 W/m2
11:19 20.8 °F 17 °F 30.18 in South 6 mph 8 mph 85% 0 in 165.00 W/m2
11:24 21 °F 16.9 °F 30.18 in SSE 6 mph 9 mph 84% 0 in 156.00 W/m2
11:29 21.2 °F 17.1 °F 30.18 in SE 5 mph 9 mph 84% 0 in 193.00 W/m2
11:34 21.3 °F 17.2 °F 30.18 in SE 6 mph 9 mph 84% 0 in 237.00 W/m2
11:39 21.7 °F 17.6 °F 30.18 in SSE 5 mph 9 mph 84% 0 in 357.00 W/m2
11:44 22.2 °F 17.8 °F 30.18 in SE 5 mph 8 mph 83% 0 in 269.00 W/m2
11:49 22.5 °F 18.1 °F 30.17 in SE 4 mph 8 mph 83% 0 in 246.00 W/m2
11:54 22.7 °F 18.3 °F 30.17 in SSE 4 mph 6 mph 83% 0 in 355.00 W/m2
11:59 23.6 °F 19.2 °F 30.17 in South 7 mph 7 mph 83% 0 in 394.00 W/m2
12:04 24.4 °F 19.1 °F 30.17 in South 6 mph 7 mph 80% 0 in 323.00 W/m2
12:09 25 °F 19.1 °F 30.17 in South 5 mph 9 mph 78% 0 in 385.00 W/m2
12:14 25.7 °F 19.5 °F 30.17 in South 7 mph 9 mph 77% 0 in 357.00 W/m2
12:19 25.7 °F 18.9 °F 30.17 in SSW 6 mph 9 mph 75% 0 in 313.00 W/m2
12:24 25.7 °F 18.9 °F 30.17 in South 7 mph 8 mph 75% 0 in 267.00 W/m2
12:29 25.5 °F 18.7 °F 30.17 in SSW 6 mph 8 mph 75% 0 in 257.00 W/m2
12:34 25.3 °F 18.5 °F 30.16 in SSW 8 mph 10 mph 75% 0 in 283.00 W/m2
12:39 24.9 °F 18.1 °F 30.16 in SSW 4 mph 10 mph 75% 0 in 192.00 W/m2
12:44 24.5 °F 18 °F 30.16 in SSW 7 mph 9 mph 76% 0 in 214.00 W/m2
12:49 24.5 °F 18.3 °F 30.16 in South 5 mph 8 mph 77% 0 in 281.00 W/m2
12:54 24.6 °F 18.4 °F 30.16 in South 6 mph 9 mph 77% 0 in 327.00 W/m2
12:59 24.8 °F 18.6 °F 30.15 in SSE 4 mph 10 mph 77% 0 in 302.00 W/m2
13:04 25.2 °F 19 °F 30.15 in South 7 mph 10 mph 77% 0 in 313.00 W/m2
13:09 25.7 °F 19.2 °F 30.15 in South 5 mph 7 mph 76% 0 in 297.00 W/m2
13:14 25.7 °F 19.2 °F 30.15 in South 5 mph 7 mph 76% 0 in 206.00 W/m2
13:19 25.2 °F 18.7 °F 30.15 in SSE 3 mph 8 mph 76% 0 in 214.00 W/m2
13:24 24.9 °F 18.4 °F 30.15 in South 5 mph 8 mph 76% 0 in 197.00 W/m2
13:29 24.8 °F 18.6 °F 30.15 in SSW 6 mph 7 mph 77% 0 in 243.00 W/m2
13:34 25.2 °F 19 °F 30.15 in South 3 mph 7 mph 77% 0 in 258.00 W/m2
13:39 25.4 °F 19.2 °F 30.15 in South 4 mph 7 mph 77% 0 in 283.00 W/m2
13:44 25.8 °F 19.3 °F 30.15 in South 6 mph 7 mph 76% 0 in 269.00 W/m2
13:49 26.2 °F 19.7 °F 30.14 in South 3 mph 7 mph 76% 0 in 272.00 W/m2
13:54 26.5 °F 19.6 °F 30.14 in South 3 mph 7 mph 75% 0 in 343.00 W/m2
13:59 27.1 °F 19.9 °F 30.14 in South 3 mph 7 mph 74% 0 in 292.00 W/m2
14:04 27.5 °F 20.3 °F 30.14 in South 5 mph 7 mph 74% 0 in 193.00 W/m2
14:09 27.7 °F 19.8 °F 30.14 in SW 4 mph 7 mph 72% 0 in 320.00 W/m2
14:14 27.5 °F 19.7 °F 30.14 in SSW 5 mph 6 mph 72% 0 in 295.00 W/m2
14:19 27.3 °F 19.5 °F 30.14 in SSW 2 mph 7 mph 72% 0 in 283.00 W/m2
14:24 27.6 °F 20.1 °F 30.14 in SSW 4 mph 7 mph 73% 0 in 281.00 W/m2
14:29 27.6 °F 19.8 °F 30.14 in SW 3 mph 8 mph 72% 0 in 285.00 W/m2
14:34 27.3 °F 19.8 °F 30.14 in SW 3 mph 8 mph 73% 0 in 295.00 W/m2
14:39 27.6 °F 19.8 °F 30.14 in WSW 6 mph 7 mph 72% 0 in 267.00 W/m2
14:44 27.3 °F 19.8 °F 30.14 in WSW 5 mph 8 mph 73% 0 in 250.00 W/m2
14:49 27.5 °F 20 °F 30.14 in WSW 4 mph 8 mph 73% 0 in 229.00 W/m2
14:54 27.5 °F 19.7 °F 30.14 in West 6 mph 8 mph 72% 0 in 213.00 W/m2
14:59 27.6 °F 20.1 °F 30.14 in WSW 4 mph 8 mph 73% 0 in 199.00 W/m2
15:04 28.1 °F 20.2 °F 30.14 in SW 5 mph 8 mph 72% 0 in 181.00 W/m2
15:09 28.3 °F 20.4 °F 30.14 in WSW 3 mph 7 mph 72% 0 in 171.00 W/m2
15:14 28.5 °F 20.3 °F 30.14 in SW 4 mph 7 mph 71% 0 in 162.00 W/m2
15:19 28.6 °F 20.4 °F 30.14 in SSW 2 mph 6 mph 71% 0 in 113.00 W/m2
15:24 28.5 °F 20 °F 30.14 in SW 3 mph 5 mph 70% 0 in 51.00 W/m2
15:29 28 °F 19.5 °F 30.14 in SW 2 mph 5 mph 70% 0 in 49.00 W/m2
15:34 27.8 °F 19.6 °F 30.15 in SW 3 mph 5 mph 71% 0 in 67.00 W/m2
15:39 27.9 °F 19.7 °F 30.15 in SW 4 mph 5 mph 71% 0 in 97.00 W/m2
15:44 28 °F 19.8 °F 30.15 in SW 4 mph 5 mph 71% 0 in 86.00 W/m2
15:49 28.2 °F 20 °F 30.15 in SW 3 mph 5 mph 71% 0 in 77.00 W/m2
15:54 28.1 °F 19.9 °F 30.15 in SW 2 mph 4 mph 71% 0 in 67.00 W/m2
15:59 28.2 °F 20 °F 30.16 in SW 1 mph 4 mph 71% 0 in 56.00 W/m2
16:04 28.3 °F 20.1 °F 30.16 in SW 2 mph 3 mph 71% 0 in 47.00 W/m2
16:09 28.4 °F 20.2 °F 30.16 in SW 1 mph 3 mph 71% 0 in 37.00 W/m2
16:14 28.5 °F 20.3 °F 30.16 in Calm   3 mph 71% 0 in 30.00 W/m2
16:19 28.9 °F 20.7 °F 30.16 in Calm   2 mph 71% 0 in 23.00 W/m2
16:24 29 °F 20.4 °F 30.16 in Calm     70% 0 in 21.00 W/m2
16:29 29.5 °F 20.9 °F 30.16 in Calm     70% 0 in 19.00 W/m2
16:34 29.8 °F 20.9 °F 30.16 in Calm     69% 0 in 16.00 W/m2
16:39 29.3 °F 20 °F 30.16 in SW 1 mph 1 mph 68% 0 in 14.00 W/m2
16:44 28.5 °F 19.6 °F 30.16 in Calm   1 mph 69% 0 in 12.00 W/m2
16:49 28 °F 19.5 °F 30.16 in Calm   1 mph 70% 0 in 9.00 W/m2
16:54 27.4 °F 19.2 °F 30.17 in Calm     71% 0 in 7.00 W/m2
16:59 27 °F 19.2 °F 30.17 in Calm     72% 0 in 5.00 W/m2
17:04 26.6 °F 19.1 °F 30.17 in Calm     73% 0 in 0.00 W/m2
17:09 26.3 °F 19.1 °F 30.17 in Calm     74% 0 in 0.00 W/m2
17:14 26.1 °F 18.9 °F 30.17 in Calm     74% 0 in 0.00 W/m2
17:19 25.9 °F 19.1 °F 30.17 in Calm     75% 0 in 0.00 W/m2
17:24 25.6 °F 18.8 °F 30.18 in Calm     75% 0 in 0.00 W/m2
17:29 25.3 °F 18.5 °F 30.18 in Calm     75% 0 in 0.00 W/m2
17:34 25.1 °F 18.6 °F 30.18 in Calm     76% 0 in 0.00 W/m2
17:39 24.8 °F 18.3 °F 30.18 in Calm     76% 0 in 0.00 W/m2
17:44 24.5 °F 18.3 °F 30.18 in SW 1 mph 2 mph 77% 0 in 0.00 W/m2
17:49 24.3 °F 18.1 °F 30.18 in NW 4 mph 5 mph 77% 0 in 0.00 W/m2
17:54 24 °F 18.1 °F 30.18 in North 4 mph 6 mph 78% 0 in 0.00 W/m2
17:59 23.8 °F 17.9 °F 30.18 in North 1 mph 6 mph 78% 0 in 0.00 W/m2
18:04 23.5 °F 17.6 °F 30.18 in North 3 mph 6 mph 78% 0 in 0.00 W/m2
18:09 23.1 °F 17.3 °F 30.18 in North 4 mph 6 mph 78% 0 in 0.00 W/m2
18:14 22.8 °F 17 °F 30.18 in NNW 3 mph 6 mph 78% 0 in 0.00 W/m2
18:19 22.7 °F 17.5 °F 30.18 in North 3 mph 6 mph 80% 0 in 0.00 W/m2
18:24 22.7 °F 17.5 °F 30.18 in North 3 mph 5 mph 80% 0 in 0.00 W/m2
18:29 22.6 °F 17.4 °F 30.19 in North 4 mph 5 mph 80% 0 in 0.00 W/m2
18:34 22.5 °F 17.3 °F 30.19 in North 5 mph 6 mph 80% 0 in 0.00 W/m2
18:39 22.5 °F 17.5 °F 30.19 in North 5 mph 6 mph 81% 0 in 0.00 W/m2
18:44 22.5 °F 17.5 °F 30.19 in NNW 3 mph 5 mph 81% 0 in 0.00 W/m2
18:49 22.2 °F 17 °F 30.19 in NNW 3 mph 4 mph 80% 0 in 0.00 W/m2
18:54 21.9 °F 16.7 °F 30.20 in NNW 2 mph 4 mph 80% 0 in 0.00 W/m2
18:59 21.6 °F 16.7 °F 30.20 in NNW 2 mph 4 mph 81% 0 in 0.00 W/m2
19:04 21.3 °F 16.4 °F 30.20 in NNW 3 mph 4 mph 81% 0 in 0.00 W/m2
19:09 20.9 °F 16 °F 30.20 in NNW 1 mph 4 mph 81% 0 in 0.00 W/m2
19:14 20.3 °F 17.6 °F 30.20 in Calm   4 mph 89% 0 in 0.00 W/m2
19:19 19.8 °F 14.9 °F 30.21 in NNW 1 mph 3 mph 81% 0 in 0.00 W/m2
19:24 19.2 °F 14.6 °F 30.21 in NNW 2 mph 2 mph 82% 0 in 0.00 W/m2
19:29 18.8 °F 14.5 °F 30.21 in NNW 3 mph 3 mph 83% 0 in 0.00 W/m2
19:34 18.6 °F 14.6 °F 30.21 in NNW 2 mph 3 mph 84% 0 in 0.00 W/m2
19:39 18.3 °F 14.3 °F 30.22 in NNW 2 mph 3 mph 84% 0 in 0.00 W/m2
19:44 18.1 °F 14.4 °F 30.22 in NNW 4 mph 4 mph 85% 0 in 0.00 W/m2
19:49 17.8 °F 14.1 °F 30.22 in NNW 4 mph 4 mph 85% 0 in 0.00 W/m2
19:54 17.6 °F 14.1 °F 30.22 in NW 5 mph 5 mph 86% 0 in 0.00 W/m2
19:59 17.3 °F 13.6 °F 30.22 in NW 5 mph 6 mph 85% 0 in 0.00 W/m2
20:04 17 °F 13.3 °F 30.22 in NW 5 mph 8 mph 85% 0 in 0.00 W/m2
20:09 17.2 °F 13.7 °F 30.22 in NW 6 mph 8 mph 86% 0 in 0.00 W/m2
20:14 17.3 °F 13.8 °F 30.22 in WNW 5 mph 7 mph 86% 0 in 0.00 W/m2
20:19 17.4 °F 13.9 °F 30.22 in WNW 6 mph 7 mph 86% 0 in 0.00 W/m2
20:24 17.3 °F 13.8 °F 30.22 in WNW 5 mph 7 mph 86% 0 in 0.00 W/m2
20:29 17.2 °F 13.7 °F 30.22 in WNW 5 mph 7 mph 86% 0 in 0.00 W/m2
20:34 17.2 °F 14 °F 30.23 in WNW 4 mph 7 mph 87% 0 in 0.00 W/m2
20:39 17.1 °F 13.9 °F 30.22 in WNW 5 mph 6 mph 87% 0 in 0.00 W/m2
20:44 17 °F 13.8 °F 30.23 in WNW 4 mph 6 mph 87% 0 in 0.00 W/m2
20:49 16.9 °F 13.7 °F 30.23 in WNW 6 mph 7 mph 87% 0 in 0.00 W/m2
20:54 16.6 °F 13.4 °F 30.23 in West 5 mph 7 mph 87% 0 in 0.00 W/m2
20:59 16 °F 12.8 °F 30.23 in West 6 mph 7 mph 87% 0 in 0.00 W/m2
21:04 15.6 °F 12.4 °F 30.23 in West 7 mph 7 mph 87% 0 in 0.00 W/m2
21:09 15.5 °F 12.6 °F 30.23 in West 6 mph 7 mph 88% 0 in 0.00 W/m2
21:14 15.5 °F 12.8 °F 30.23 in West 7 mph 8 mph 89% 0 in 0.00 W/m2
21:19 15.6 °F 12.9 °F 30.23 in West 5 mph 8 mph 89% 0 in 0.00 W/m2
21:24 15.7 °F 13 °F 30.23 in WNW 7 mph 8 mph 89% 0 in 0.00 W/m2
21:29 15.7 °F 13 °F 30.23 in WNW 6 mph 8 mph 89% 0 in 0.00 W/m2
21:34 15.6 °F 12.9 °F 30.23 in WNW 6 mph 8 mph 89% 0 in 0.00 W/m2
21:39 15.6 °F 13.2 °F 30.24 in WNW 5 mph 8 mph 90% 0 in 0.00 W/m2
21:44 15.8 °F 13.4 °F 30.23 in WNW 4 mph 7 mph 90% 0 in 0.00 W/m2
21:49 15.7 °F 13.3 °F 30.24 in WNW 5 mph 7 mph 90% 0 in 0.00 W/m2
21:54 15.9 °F 13.5 °F 30.24 in WNW 7 mph 9 mph 90% 0 in 0.00 W/m2
21:59 16.5 °F 14.3 °F 30.24 in WNW 4 mph 9 mph 91% 0 in 0.00 W/m2
22:04 16.3 °F 13.9 °F 30.25 in NW 7 mph 8 mph 90% 0 in 0.00 W/m2
22:09 15.6 °F 12.9 °F 30.25 in WNW 3 mph 7 mph 89% 0 in 0.00 W/m2
22:14 15.1 °F 12.4 °F 30.25 in NW 5 mph 7 mph 89% 0 in 0.00 W/m2
22:19 15.3 °F 12.9 °F 30.25 in NW 4 mph 7 mph 90% 0 in 0.00 W/m2
22:24 15.6 °F 13.4 °F 30.25 in NW 4 mph 7 mph 91% 0 in 0.00 W/m2
22:29 15.5 °F 13.1 °F 30.25 in NW 5 mph 7 mph 90% 0 in 0.00 W/m2
22:34 15.8 °F 13.6 °F 30.25 in NW 5 mph 7 mph 91% 0 in 0.00 W/m2
22:39 15.3 °F 12.9 °F 30.26 in NW 4 mph 7 mph 90% 0 in 0.00 W/m2
22:44 14.7 °F 12.3 °F 30.26 in NW 4 mph 7 mph 90% 0 in 0.00 W/m2
22:49 14.6 °F 12.2 °F 30.26 in NW 4 mph 6 mph 90% 0 in 0.00 W/m2
22:54 14.4 °F 12 °F 30.26 in NW 4 mph 6 mph 90% 0 in 0.00 W/m2
22:59 14 °F 11.6 °F 30.26 in NW 3 mph 5 mph 90% 0 in 0.00 W/m2
23:04 14 °F 11.6 °F 30.26 in NW 4 mph 4 mph 90% 0 in 0.00 W/m2
23:09 13.8 °F 11.4 °F 30.26 in NW 5 mph 6 mph 90% 0 in 0.00 W/m2
23:14 13.5 °F 11.4 °F 30.27 in NW 5 mph 6 mph 91% 0 in 0.00 W/m2
23:19 13.3 °F 10.9 °F 30.27 in NW 4 mph 6 mph 90% 0 in 0.00 W/m2
23:24 13.2 °F 11.1 °F 30.27 in NW 3 mph 6 mph 91% 0 in 0.00 W/m2
23:29 13.1 °F 11 °F 30.27 in NW 3 mph 5 mph 91% 0 in 0.00 W/m2
23:34 13.1 °F 11 °F 30.27 in NW 3 mph 5 mph 91% 0 in 0.00 W/m2
23:39 13 °F 10.9 °F 30.27 in NW 3 mph 4 mph 91% 0 in 0.00 W/m2
23:44 13 °F 10.9 °F 30.27 in WNW 3 mph 5 mph 91% 0 in 0.00 W/m2
23:49 12.7 °F 10.3 °F 30.28 in WNW 4 mph 5 mph 90% 0 in 0.00 W/m2
23:54 12.5 °F 10.4 °F 30.28 in WNW 3 mph 4 mph 91% 0 in 0.00 W/m2
23:59 12.5 °F 10.4 °F 30.28 in WNW 1 mph 4 mph 91% 0 in 0.00 W/m2
Bismarck, North Dakota, USA
Compliments of Weather Underground - 4 mb